sensor_id;sensor_type;location;lat;lon;timestamp;pressure;altitude;pressure_sealevel;temperature;humidity
13800;BME280;6971;50.028;9.258;2022-12-07T00:00:43;99490.06;;;0.21;100.00
13800;BME280;6971;50.028;9.258;2022-12-07T00:05:44;99472.69;;;0.30;100.00
13800;BME280;6971;50.028;9.258;2022-12-07T00:10:45;99473.66;;;0.21;100.00
13800;BME280;6971;50.028;9.258;2022-12-07T00:15:45;99473.66;;;0.18;100.00
13800;BME280;6971;50.028;9.258;2022-12-07T00:20:46;99464.81;;;0.37;100.00
13800;BME280;6971;50.028;9.258;2022-12-07T00:25:47;99457.78;;;0.49;100.00
13800;BME280;6971;50.028;9.258;2022-12-07T00:30:50;99455.22;;;0.47;100.00
13800;BME280;6971;50.028;9.258;2022-12-07T00:35:58;99451.78;;;0.42;100.00
13800;BME280;6971;50.028;9.258;2022-12-07T00:41:01;99447.44;;;0.47;100.00
13800;BME280;6971;50.028;9.258;2022-12-07T00:46:03;99444.91;;;0.39;100.00
13800;BME280;6971;50.028;9.258;2022-12-07T00:51:04;99438.81;;;0.44;100.00
13800;BME280;6971;50.028;9.258;2022-12-07T00:56:06;99444.97;;;0.35;100.00
13800;BME280;6971;50.028;9.258;2022-12-07T01:01:09;99446.59;;;0.44;100.00
13800;BME280;6971;50.028;9.258;2022-12-07T01:06:22;99447.59;;;0.33;100.00
13800;BME280;6971;50.028;9.258;2022-12-07T01:11:25;99440.59;;;0.38;100.00
13800;BME280;6971;50.028;9.258;2022-12-07T01:16:29;99438.75;;;0.50;100.00
13800;BME280;6971;50.028;9.258;2022-12-07T01:21:32;99426.56;;;0.57;100.00
13800;BME280;6971;50.028;9.258;2022-12-07T01:26:38;99431.69;;;0.61;100.00
13800;BME280;6971;50.028;9.258;2022-12-07T01:31:38;99428.16;;;0.65;100.00
13800;BME280;6971;50.028;9.258;2022-12-07T01:36:39;99427.25;;;0.68;100.00
13800;BME280;6971;50.028;9.258;2022-12-07T01:41:40;99426.56;;;0.58;100.00
13800;BME280;6971;50.028;9.258;2022-12-07T01:46:54;99427.19;;;0.76;100.00
13800;BME280;6971;50.028;9.258;2022-12-07T01:57:06;99428.91;;;0.75;100.00
13800;BME280;6971;50.028;9.258;2022-12-07T02:02:14;99426.25;;;0.80;100.00
13800;BME280;6971;50.028;9.258;2022-12-07T02:07:18;99414.06;;;0.87;100.00
13800;BME280;6971;50.028;9.258;2022-12-07T02:12:20;99417.50;;;0.87;100.00
13800;BME280;6971;50.028;9.258;2022-12-07T02:17:32;99403.72;;;0.84;100.00
13800;BME280;6971;50.028;9.258;2022-12-07T02:28:31;99404.31;;;1.01;100.00
13800;BME280;6971;50.028;9.258;2022-12-07T02:33:37;99391.53;;;0.87;100.00
13800;BME280;6971;50.028;9.258;2022-12-07T02:39:00;99398.41;;;0.91;100.00
13800;BME280;6971;50.028;9.258;2022-12-07T02:44:06;99389.69;;;0.96;100.00
13800;BME280;6971;50.028;9.258;2022-12-07T02:49:09;99393.22;;;0.91;100.00
13800;BME280;6971;50.028;9.258;2022-12-07T02:54:16;99388.81;;;0.95;100.00
13800;BME280;6971;50.028;9.258;2022-12-07T03:16:19;99379.97;;;1.09;100.00
13800;BME280;6971;50.028;9.258;2022-12-07T03:21:29;99380.03;;;1.06;100.00
13800;BME280;6971;50.028;9.258;2022-12-07T03:26:35;99371.41;;;1.02;100.00
13800;BME280;6971;50.028;9.258;2022-12-07T03:31:43;99371.41;;;1.02;100.00
13800;BME280;6971;50.028;9.258;2022-12-07T03:36:57;99373.06;;;1.08;100.00
13800;BME280;6971;50.028;9.258;2022-12-07T03:42:03;99365.19;;;1.15;100.00
13800;BME280;6971;50.028;9.258;2022-12-07T03:47:15;99363.50;;;1.11;100.00
13800;BME280;6971;50.028;9.258;2022-12-07T03:57:28;99364.47;;;1.06;100.00
13800;BME280;6971;50.028;9.258;2022-12-07T04:02:42;99360.88;;;1.13;100.00
13800;BME280;6971;50.028;9.258;2022-12-07T04:07:43;99355.75;;;1.08;100.00
13800;BME280;6971;50.028;9.258;2022-12-07T04:12:44;99357.41;;;1.14;100.00
13800;BME280;6971;50.028;9.258;2022-12-07T04:17:45;99360.06;;;1.09;100.00
13800;BME280;6971;50.028;9.258;2022-12-07T04:22:46;99348.03;;;1.05;100.00
13800;BME280;6971;50.028;9.258;2022-12-07T04:27:47;99346.22;;;1.09;100.00
13800;BME280;6971;50.028;9.258;2022-12-07T04:32:48;99348.97;;;0.99;100.00
13800;BME280;6971;50.028;9.258;2022-12-07T04:37:50;99346.34;;;1.01;100.00
13800;BME280;6971;50.028;9.258;2022-12-07T04:42:51;99354.13;;;1.02;100.00
13800;BME280;6971;50.028;9.258;2022-12-07T04:47:53;99353.00;;;1.19;100.00
13800;BME280;6971;50.028;9.258;2022-12-07T04:52:54;99355.53;;;1.22;100.00
13800;BME280;6971;50.028;9.258;2022-12-07T04:57:55;99349.63;;;1.14;100.00
13800;BME280;6971;50.028;9.258;2022-12-07T05:02:56;99355.72;;;1.11;100.00
13800;BME280;6971;50.028;9.258;2022-12-07T05:07:57;99355.81;;;1.03;100.00
13800;BME280;6971;50.028;9.258;2022-12-07T05:12:57;99347.19;;;1.04;100.00
13800;BME280;6971;50.028;9.258;2022-12-07T05:17:59;99353.16;;;1.10;100.00
13800;BME280;6971;50.028;9.258;2022-12-07T05:23:00;99355.78;;;1.07;100.00
13800;BME280;6971;50.028;9.258;2022-12-07T05:28:00;99344.50;;;1.08;100.00
13800;BME280;6971;50.028;9.258;2022-12-07T05:33:01;99347.88;;;1.14;100.00
13800;BME280;6971;50.028;9.258;2022-12-07T05:38:03;99351.22;;;1.21;100.00
13800;BME280;6971;50.028;9.258;2022-12-07T05:43:04;99349.69;;;1.09;100.00
13800;BME280;6971;50.028;9.258;2022-12-07T05:48:05;99340.91;;;1.18;100.00
13800;BME280;6971;50.028;9.258;2022-12-07T05:53:06;99348.72;;;1.16;100.00
13800;BME280;6971;50.028;9.258;2022-12-07T05:58:07;99352.19;;;1.15;100.00
13800;BME280;6971;50.028;9.258;2022-12-07T06:03:27;99354.66;;;1.23;100.00
13800;BME280;6971;50.028;9.258;2022-12-07T06:08:28;99353.81;;;1.21;100.00
13800;BME280;6971;50.028;9.258;2022-12-07T06:13:29;99347.56;;;1.33;100.00
13800;BME280;6971;50.028;9.258;2022-12-07T06:18:30;99348.56;;;1.26;100.00
13800;BME280;6971;50.028;9.258;2022-12-07T06:23:31;99344.25;;;1.25;100.00
13800;BME280;6971;50.028;9.258;2022-12-07T06:28:32;99350.16;;;1.33;100.00
13800;BME280;6971;50.028;9.258;2022-12-07T06:33:33;99353.72;;;1.27;100.00
13800;BME280;6971;50.028;9.258;2022-12-07T06:38:35;99352.06;;;1.23;100.00
13800;BME280;6971;50.028;9.258;2022-12-07T06:43:36;99355.44;;;1.27;100.00
13800;BME280;6971;50.028;9.258;2022-12-07T06:48:37;99353.78;;;1.24;100.00
13800;BME280;6971;50.028;9.258;2022-12-07T06:53:38;99352.91;;;1.24;100.00
13800;BME280;6971;50.028;9.258;2022-12-07T06:58:39;99354.69;;;1.22;100.00
13800;BME280;6971;50.028;9.258;2022-12-07T07:03:41;99361.69;;;1.16;100.00
13800;BME280;6971;50.028;9.258;2022-12-07T07:08:41;99354.69;;;1.22;100.00
13800;BME280;6971;50.028;9.258;2022-12-07T07:13:44;99356.38;;;1.23;100.00
13800;BME280;6971;50.028;9.258;2022-12-07T07:18:45;99364.88;;;1.33;100.00
13800;BME280;6971;50.028;9.258;2022-12-07T07:23:45;99359.72;;;1.31;100.00
13800;BME280;6971;50.028;9.258;2022-12-07T07:28:46;99373.50;;;1.35;100.00
13800;BME280;6971;50.028;9.258;2022-12-07T07:33:47;99375.28;;;1.31;100.00
13800;BME280;6971;50.028;9.258;2022-12-07T07:38:48;99369.09;;;1.40;100.00
13800;BME280;6971;50.028;9.258;2022-12-07T07:43:49;99369.97;;;1.37;100.00
13800;BME280;6971;50.028;9.258;2022-12-07T07:48:56;99371.72;;;1.38;100.00
13800;BME280;6971;50.028;9.258;2022-12-07T07:53:57;99370.72;;;1.46;100.00
13800;BME280;6971;50.028;9.258;2022-12-07T07:58:59;99374.22;;;1.43;100.00
13800;BME280;6971;50.028;9.258;2022-12-07T08:04:00;99378.53;;;1.44;100.00
13800;BME280;6971;50.028;9.258;2022-12-07T08:09:02;99381.03;;;1.50;100.00
13800;BME280;6971;50.028;9.258;2022-12-07T08:14:06;99374.91;;;1.54;100.00
13800;BME280;6971;50.028;9.258;2022-12-07T08:19:07;99374.00;;;1.55;100.00
13800;BME280;6971;50.028;9.258;2022-12-07T08:24:08;99379.91;;;1.65;100.00
13800;BME280;6971;50.028;9.258;2022-12-07T08:29:10;99373.78;;;1.69;100.00
13800;BME280;6971;50.028;9.258;2022-12-07T08:34:11;99375.59;;;1.64;100.00
13800;BME280;6971;50.028;9.258;2022-12-07T08:39:12;99378.94;;;1.71;100.00
13800;BME280;6971;50.028;9.258;2022-12-07T08:44:13;99374.41;;;1.81;100.00
13800;BME280;6971;50.028;9.258;2022-12-07T08:49:16;99375.09;;;1.91;100.00
13800;BME280;6971;50.028;9.258;2022-12-07T08:54:19;99380.38;;;1.86;100.00
13800;BME280;6971;50.028;9.258;2022-12-07T08:59:20;99386.00;;;2.10;100.00
13800;BME280;6971;50.028;9.258;2022-12-07T09:04:22;99386.09;;;2.04;100.00
13800;BME280;6971;50.028;9.258;2022-12-07T09:09:23;99390.28;;;2.13;100.00
13800;BME280;6971;50.028;9.258;2022-12-07T09:14:23;99398.06;;;2.14;100.00
13800;BME280;6971;50.028;9.258;2022-12-07T09:19:25;99394.38;;;2.25;100.00
13800;BME280;6971;50.028;9.258;2022-12-07T09:24:26;99400.56;;;2.17;100.00
13800;BME280;6971;50.028;9.258;2022-12-07T09:29:27;99402.34;;;2.17;100.00
13800;BME280;6971;50.028;9.258;2022-12-07T09:34:31;99399.56;;;2.25;100.00
13800;BME280;6971;50.028;9.258;2022-12-07T09:39:32;99398.59;;;2.30;100.00
13800;BME280;6971;50.028;9.258;2022-12-07T09:44:34;99391.50;;;2.39;100.00
13800;BME280;6971;50.028;9.258;2022-12-07T09:49:36;99388.31;;;2.65;100.00
13800;BME280;6971;50.028;9.258;2022-12-07T09:54:41;99384.00;;;2.64;100.00
13800;BME280;6971;50.028;9.258;2022-12-07T09:59:44;99374.34;;;2.69;100.00
13800;BME280;6971;50.028;9.258;2022-12-07T10:04:45;99370.84;;;2.70;100.00
13800;BME280;6971;50.028;9.258;2022-12-07T10:09:46;99378.56;;;2.75;100.00
13800;BME280;6971;50.028;9.258;2022-12-07T10:15:01;99372.63;;;2.70;100.00
13800;BME280;6971;50.028;9.258;2022-12-07T10:25:20;99369.06;;;2.74;100.00
13800;BME280;6971;50.028;9.258;2022-12-07T10:30:21;99357.50;;;2.86;100.00
13800;BME280;6971;50.028;9.258;2022-12-07T10:35:42;99361.53;;;2.99;100.00
13800;BME280;6971;50.028;9.258;2022-12-07T10:41:05;99357.72;;;3.13;100.00
13800;BME280;6971;50.028;9.258;2022-12-07T10:46:26;99357.22;;;2.98;100.00
13800;BME280;6971;50.028;9.258;2022-12-07T10:51:42;99350.66;;;3.18;100.00
13800;BME280;6971;50.028;9.258;2022-12-07T10:56:52;99353.97;;;3.25;100.00
13800;BME280;6971;50.028;9.258;2022-12-07T11:18:26;99324.47;;;3.24;100.00
13800;BME280;6971;50.028;9.258;2022-12-07T11:23:56;99320.00;;;3.30;100.00
13800;BME280;6971;50.028;9.258;2022-12-07T11:34:40;99310.97;;;3.43;100.00
13800;BME280;6971;50.028;9.258;2022-12-07T11:39:55;99302.28;;;3.43;100.00
13800;BME280;6971;50.028;9.258;2022-12-07T11:45:13;99300.19;;;3.57;100.00
13800;BME280;6971;50.028;9.258;2022-12-07T11:55:26;99285.75;;;3.75;100.00
13800;BME280;6971;50.028;9.258;2022-12-07T12:00:32;99277.50;;;3.91;100.00
13800;BME280;6971;50.028;9.258;2022-12-07T12:05:33;99271.03;;;3.74;100.00
13800;BME280;6971;50.028;9.258;2022-12-07T12:10:54;99263.72;;;3.86;100.00
13800;BME280;6971;50.028;9.258;2022-12-07T12:21:12;99274.88;;;3.61;100.00
13800;BME280;6971;50.028;9.258;2022-12-07T12:26:21;99256.97;;;3.48;100.00
13800;BME280;6971;50.028;9.258;2022-12-07T12:36:44;99258.94;;;3.40;100.00
13800;BME280;6971;50.028;9.258;2022-12-07T12:51:54;99245.91;;;3.72;100.00
13800;BME280;6971;50.028;9.258;2022-12-07T12:57:09;99229.09;;;3.82;100.00
13800;BME280;6971;50.028;9.258;2022-12-07T13:02:35;99229.75;;;3.89;100.00
13800;BME280;6971;50.028;9.258;2022-12-07T13:07:49;99226.97;;;3.95;100.00
13800;BME280;6971;50.028;9.258;2022-12-07T13:33:46;99217.00;;;3.48;100.00
13800;BME280;6971;50.028;9.258;2022-12-07T13:38:53;99213.44;;;3.52;100.00
13800;BME280;6971;50.028;9.258;2022-12-07T13:44:05;99213.63;;;3.46;100.00
13800;BME280;6971;50.028;9.258;2022-12-07T13:49:17;99214.47;;;3.46;100.00
13800;BME280;6971;50.028;9.258;2022-12-07T13:54:20;99209.38;;;3.42;100.00
13800;BME280;6971;50.028;9.258;2022-12-07T13:59:23;99214.47;;;3.46;100.00
13800;BME280;6971;50.028;9.258;2022-12-07T14:04:32;99199.88;;;3.41;100.00
13800;BME280;6971;50.028;9.258;2022-12-07T14:09:34;99205.91;;;3.41;100.00
13800;BME280;6971;50.028;9.258;2022-12-07T14:14:36;99219.78;;;3.10;100.00
13800;BME280;6971;50.028;9.258;2022-12-07T14:19:54;99223.03;;;2.85;100.00
13800;BME280;6971;50.028;9.258;2022-12-07T14:25:18;99239.44;;;2.52;100.00
13800;BME280;6971;50.028;9.258;2022-12-07T14:30:20;99228.81;;;2.25;100.00
13800;BME280;6971;50.028;9.258;2022-12-07T14:35:21;99223.00;;;2.12;100.00
13800;BME280;6971;50.028;9.258;2022-12-07T14:40:26;99231.47;;;2.22;100.00
13800;BME280;6971;50.028;9.258;2022-12-07T14:45:28;99232.28;;;2.24;100.00
13800;BME280;6971;50.028;9.258;2022-12-07T14:50:29;99231.19;;;1.95;100.00
13800;BME280;6971;50.028;9.258;2022-12-07T14:55:31;99221.88;;;1.85;100.00
13800;BME280;6971;50.028;9.258;2022-12-07T15:00:32;99217.97;;;1.63;100.00
13800;BME280;6971;50.028;9.258;2022-12-07T15:05:34;99211.91;;;1.64;100.00
13800;BME280;6971;50.028;9.258;2022-12-07T15:10:36;99221.44;;;1.64;100.00
13800;BME280;6971;50.028;9.258;2022-12-07T15:15:39;99211.25;;;1.54;100.00
13800;BME280;6971;50.028;9.258;2022-12-07T15:20:41;99204.50;;;1.44;100.00
13800;BME280;6971;50.028;9.258;2022-12-07T15:25:43;99201.91;;;1.44;100.00
13800;BME280;6971;50.028;9.258;2022-12-07T15:30:45;99200.09;;;1.49;100.00
13800;BME280;6971;50.028;9.258;2022-12-07T15:35:46;99200.94;;;1.50;100.00
13800;BME280;6971;50.028;9.258;2022-12-07T15:40:47;99197.69;;;1.40;100.00
13800;BME280;6971;50.028;9.258;2022-12-07T15:45:49;99190.63;;;1.47;100.00
13800;BME280;6971;50.028;9.258;2022-12-07T15:50:51;99180.03;;;1.56;100.00
13800;BME280;6971;50.028;9.258;2022-12-07T15:55:52;99178.41;;;1.52;100.00
13800;BME280;6971;50.028;9.258;2022-12-07T16:00:53;99177.56;;;1.50;100.00
13800;BME280;6971;50.028;9.258;2022-12-07T16:05:55;99178.44;;;1.50;100.00
13800;BME280;6971;50.028;9.258;2022-12-07T16:10:56;99175.81;;;1.52;100.00
13800;BME280;6971;50.028;9.258;2022-12-07T16:15:56;99169.75;;;1.50;100.00
13800;BME280;6971;50.028;9.258;2022-12-07T16:20:58;99164.56;;;1.50;100.00
13800;BME280;6971;50.028;9.258;2022-12-07T16:26:07;99178.63;;;1.41;100.00
13800;BME280;6971;50.028;9.258;2022-12-07T16:31:13;99169.06;;;1.41;100.00
13800;BME280;6971;50.028;9.258;2022-12-07T16:36:15;99156.91;;;1.43;100.00
13800;BME280;6971;50.028;9.258;2022-12-07T16:41:19;99173.28;;;1.47;100.00
13800;BME280;6971;50.028;9.258;2022-12-07T16:46:19;99168.88;;;1.51;100.00
13800;BME280;6971;50.028;9.258;2022-12-07T16:51:20;99169.88;;;1.45;100.00
13800;BME280;6971;50.028;9.258;2022-12-07T16:56:22;99163.81;;;1.45;100.00
13800;BME280;6971;50.028;9.258;2022-12-07T17:01:23;99169.69;;;1.54;100.00
13800;BME280;6971;50.028;9.258;2022-12-07T17:06:26;99170.47;;;1.58;100.00
13800;BME280;6971;50.028;9.258;2022-12-07T17:11:29;99169.78;;;1.48;100.00
13800;BME280;6971;50.028;9.258;2022-12-07T17:16:33;99163.69;;;1.51;100.00
13800;BME280;6971;50.028;9.258;2022-12-07T17:21:35;99161.97;;;1.50;100.00
13800;BME280;6971;50.028;9.258;2022-12-07T17:26:37;99168.81;;;1.54;100.00
13800;BME280;6971;50.028;9.258;2022-12-07T17:31:38;99160.78;;;1.66;100.00
13800;BME280;6971;50.028;9.258;2022-12-07T17:36:40;99161.97;;;1.50;100.00
13800;BME280;6971;50.028;9.258;2022-12-07T17:41:41;99155.59;;;1.65;100.00
13800;BME280;6971;50.028;9.258;2022-12-07T17:47:00;99152.97;;;1.66;100.00
13800;BME280;6971;50.028;9.258;2022-12-07T17:52:03;99147.78;;;1.66;100.00
13800;BME280;6971;50.028;9.258;2022-12-07T17:57:23;99150.22;;;1.73;100.00
13800;BME280;6971;50.028;9.258;2022-12-07T18:02:24;99142.44;;;1.73;100.00
13800;BME280;6971;50.028;9.258;2022-12-07T18:07:26;99137.19;;;1.76;100.00
13800;BME280;6971;50.028;9.258;2022-12-07T18:12:27;99139.19;;;1.64;100.00
13800;BME280;6971;50.028;9.258;2022-12-07T18:17:28;99141.69;;;1.67;100.00
13800;BME280;6971;50.028;9.258;2022-12-07T18:22:29;99129.63;;;1.65;100.00
13800;BME280;6971;50.028;9.258;2022-12-07T18:27:30;99131.41;;;1.63;100.00
13800;BME280;6971;50.028;9.258;2022-12-07T18:32:31;99133.88;;;1.67;100.00
13800;BME280;6971;50.028;9.258;2022-12-07T18:37:33;99133.97;;;1.64;100.00
13800;BME280;6971;50.028;9.258;2022-12-07T18:42:34;99127.75;;;1.70;100.00
13800;BME280;6971;50.028;9.258;2022-12-07T18:47:35;99135.56;;;1.70;100.00
13800;BME280;6971;50.028;9.258;2022-12-07T18:52:36;99137.19;;;1.74;100.00
13800;BME280;6971;50.028;9.258;2022-12-07T18:57:37;99125.09;;;1.75;100.00
13800;BME280;6971;50.028;9.258;2022-12-07T19:02:38;99128.47;;;1.77;100.00
13800;BME280;6971;50.028;9.258;2022-12-07T19:07:38;99122.53;;;1.72;100.00
13800;BME280;6971;50.028;9.258;2022-12-07T19:12:40;99114.81;;;1.68;100.00
13800;BME280;6971;50.028;9.258;2022-12-07T19:17:41;99114.03;;;1.65;100.00
13800;BME280;6971;50.028;9.258;2022-12-07T19:22:44;99113.00;;;1.72;100.00
13800;BME280;6971;50.028;9.258;2022-12-07T19:27:44;99110.44;;;1.71;100.00
13800;BME280;6971;50.028;9.258;2022-12-07T19:32:45;99105.25;;;1.71;100.00
13800;BME280;6971;50.028;9.258;2022-12-07T19:37:46;99113.03;;;1.71;100.00
13800;BME280;6971;50.028;9.258;2022-12-07T19:42:46;99107.06;;;1.67;100.00
13800;BME280;6971;50.028;9.258;2022-12-07T19:47:47;99113.03;;;1.71;100.00
13800;BME280;6971;50.028;9.258;2022-12-07T19:52:48;99100.50;;;1.50;100.00
13800;BME280;6971;50.028;9.258;2022-12-07T19:57:49;99101.00;;;1.66;100.00
13800;BME280;6971;50.028;9.258;2022-12-07T20:02:52;99095.84;;;1.65;100.00
13800;BME280;6971;50.028;9.258;2022-12-07T20:07:54;99093.94;;;1.73;100.00
13800;BME280;6971;50.028;9.258;2022-12-07T20:12:54;99088.06;;;1.63;100.00
13800;BME280;6971;50.028;9.258;2022-12-07T20:18:14;99085.41;;;1.66;100.00
13800;BME280;6971;50.028;9.258;2022-12-07T20:23:15;99075.19;;;1.60;100.00
13800;BME280;6971;50.028;9.258;2022-12-07T20:28:16;99077.66;;;1.65;100.00
13800;BME280;6971;50.028;9.258;2022-12-07T20:33:18;99078.56;;;1.64;100.00
13800;BME280;6971;50.028;9.258;2022-12-07T20:38:19;99076.09;;;1.58;100.00
13800;BME280;6971;50.028;9.258;2022-12-07T20:43:20;99070.94;;;1.56;100.00
13800;BME280;6971;50.028;9.258;2022-12-07T20:48:21;99064.03;;;1.55;100.00
13800;BME280;6971;50.028;9.258;2022-12-07T20:53:23;99061.41;;;1.55;100.00
13800;BME280;6971;50.028;9.258;2022-12-07T20:58:24;99067.28;;;1.63;100.00
13800;BME280;6971;50.028;9.258;2022-12-07T21:03:26;99062.31;;;1.54;100.00
13800;BME280;6971;50.028;9.258;2022-12-07T21:08:27;99061.34;;;1.58;100.00
13800;BME280;6971;50.028;9.258;2022-12-07T21:13:28;99059.63;;;1.59;100.00
13800;BME280;6971;50.028;9.258;2022-12-07T21:18:29;99049.22;;;1.60;100.00
13800;BME280;6971;50.028;9.258;2022-12-07T21:23:29;99045.97;;;1.50;100.00
13800;BME280;6971;50.028;9.258;2022-12-07T21:28:30;99034.66;;;1.51;100.00
13800;BME280;6971;50.028;9.258;2022-12-07T21:33:32;99033.91;;;1.48;100.00
13800;BME280;6971;50.028;9.258;2022-12-07T21:38:33;99032.34;;;1.39;100.00
13800;BME280;6971;50.028;9.258;2022-12-07T21:43:34;99024.31;;;1.50;100.00
13800;BME280;6971;50.028;9.258;2022-12-07T21:48:35;99024.31;;;1.50;100.00
13800;BME280;6971;50.028;9.258;2022-12-07T21:53:37;99025.19;;;1.50;100.00
13800;BME280;6971;50.028;9.258;2022-12-07T21:58:38;99022.56;;;1.52;100.00
13800;BME280;6971;50.028;9.258;2022-12-07T22:03:48;99023.22;;;1.60;100.00
13800;BME280;6971;50.028;9.258;2022-12-07T22:08:50;99019.78;;;1.58;100.00
13800;BME280;6971;50.028;9.258;2022-12-07T22:13:51;99010.31;;;1.57;100.00
13800;BME280;6971;50.028;9.258;2022-12-07T22:19:12;99006.03;;;1.54;100.00
13800;BME280;6971;50.028;9.258;2022-12-07T22:24:13;99006.78;;;1.60;100.00
13800;BME280;6971;50.028;9.258;2022-12-07T22:29:15;99000.66;;;1.62;100.00
13800;BME280;6971;50.028;9.258;2022-12-07T22:34:16;98991.25;;;1.56;100.00
13800;BME280;6971;50.028;9.258;2022-12-07T22:39:17;98995.59;;;1.58;100.00
13800;BME280;6971;50.028;9.258;2022-12-07T22:44:18;98993.88;;;1.55;100.00
13800;BME280;6971;50.028;9.258;2022-12-07T22:49:19;98991.09;;;1.64;100.00
13800;BME280;6971;50.028;9.258;2022-12-07T22:54:20;98978.22;;;1.58;100.00
13800;BME280;6971;50.028;9.258;2022-12-07T22:59:21;98983.44;;;1.58;100.00
13800;BME280;6971;50.028;9.258;2022-12-07T23:04:21;98976.66;;;1.51;100.00
13800;BME280;6971;50.028;9.258;2022-12-07T23:09:22;98977.56;;;1.50;100.00
13800;BME280;6971;50.028;9.258;2022-12-07T23:14:28;98966.28;;;1.51;100.00
13800;BME280;6971;50.028;9.258;2022-12-07T23:19:42;98968.84;;;1.52;100.00
13800;BME280;6971;50.028;9.258;2022-12-07T23:24:43;98952.66;;;1.42;100.00
13800;BME280;6971;50.028;9.258;2022-12-07T23:29:44;98955.75;;;1.57;100.00
13800;BME280;6971;50.028;9.258;2022-12-07T23:34:45;98952.25;;;1.58;100.00
13800;BME280;6971;50.028;9.258;2022-12-07T23:39:46;98941.38;;;1.43;100.00
13800;BME280;6971;50.028;9.258;2022-12-07T23:44:47;98941.13;;;1.53;100.00
13800;BME280;6971;50.028;9.258;2022-12-07T23:49:49;98938.53;;;1.53;100.00
13800;BME280;6971;50.028;9.258;2022-12-07T23:54:49;98926.56;;;1.46;100.00
13800;BME280;6971;50.028;9.258;2022-12-07T23:59:50;98928.94;;;1.55;100.00
